KBLF

Details ICAO KBLF
Name MERCER CO
Region United States
Timezone America/New_York (UTC-5.0)
Plans Departing 4
Arriving 6
Stats Elevation 2,857 ft / 871 m (AMSL)
Location 37.295794° -81.207690°
Runways 1
Magnetic Variation 7.872° W
Sunrise 2017-12-17 12:34:28 UTC / 2017-12-17 07:34:28 Local
Sunset 2017-12-17 22:10:23 UTC / 2017-12-17 17:10:23 Local
Advertisement - Login to hide

Runways

ID Width Length Bearing (true) Bearing (mag) Surface Threshold Offset Overrun Length
05 100 ft / 30 m 4,744 ft / 1,446 m 41.74° 49.61° Asphalt 0 ft / 0 m 0 ft / 0 m
23 100 ft / 30 m 4,744 ft / 1,446 m 221.75° 229.62° Asphalt 0 ft / 0 m 0 ft / 0 m

Approach Navaids

Runway Type Ident Frequency Range Bearing (true) Bearing (mag) Slope Elevation
23 Localiser IBLF 109.50 MHz 18 nm / 33 km 221.75° 229.62° - 2,857 ft / 871 m (AMSL)
23 Glidescope IBLF 109.50 MHz 10 nm / 19 km 221.75° 229.62° 3.00° 2,855 ft / 870 m (AMSL)

Map

Weather


0- 5 10 15 20 25 30 35+ Temperature / ° C

Clouds and Precipitation
Forecast for 2017-12-17 12:00 UTC. Updated an hour ago

Ground ~20,000 ft ~40,000 ft Winds

METAR

KBLF 170752Z AUTO 26007KT 10SM CLR M01/M06 A3022 RMK AO2 SLP243 T10061061

TAF

TAF KBLF 170520Z 1706/1806 25005KT P6SM FEW250 FM171600 00000KT P6SM BKN110 FM172100 23006KT P6SM OVC060

Frequencies

Recorded 132.72 MHz ASOS
Unicom 122.90 MHz CTAF
Warning: Do not use this data for real-world aviation or navigation. No guarantee of current accuracy is given.